createdAt,value
2019-03-25T00:01:55.411Z,5.12
2019-03-25T00:04:24.153Z,4.97
2019-03-25T00:06:52.605Z,4.90
2019-03-25T00:09:21.055Z,5.87
2019-03-25T00:11:50.667Z,4.80
2019-03-25T00:14:19.131Z,4.83
2019-03-25T00:16:47.937Z,5.17
2019-03-25T00:19:16.753Z,5.17
2019-03-25T00:21:46.380Z,4.90
2019-03-25T00:24:15.238Z,5.25
2019-03-25T00:26:44.113Z,5.87
2019-03-25T00:29:12.558Z,5.35
2019-03-25T00:31:41.261Z,5.25
2019-03-25T00:34:09.747Z,4.60
2019-03-25T00:36:38.547Z,6.20
2019-03-25T00:39:07.449Z,5.60
2019-03-25T00:41:36.333Z,5.97
2019-03-25T00:44:05.045Z,4.67
2019-03-25T00:46:33.925Z,5.15
2019-03-25T00:49:02.703Z,5.15
2019-03-25T00:51:31.475Z,5.75
2019-03-25T00:54:00.181Z,5.15
2019-03-25T00:56:28.931Z,5.35
2019-03-25T00:58:59.265Z,5.67
2019-03-25T01:01:29.304Z,6.17
2019-03-25T01:03:58.170Z,5.10
2019-03-25T01:06:26.685Z,5.85
2019-03-25T01:09:04.227Z,5.42
2019-03-25T01:11:32.948Z,5.35
2019-03-25T01:14:01.409Z,5.15
2019-03-25T01:16:29.859Z,5.50
2019-03-25T01:18:59.389Z,5.60
2019-03-25T01:21:27.842Z,4.92
2019-03-25T01:23:58.722Z,5.37
2019-03-25T01:26:27.259Z,5.42
2019-03-25T01:28:55.705Z,5.17
2019-03-25T01:31:24.194Z,5.40
2019-03-25T01:33:52.641Z,5.47
2019-03-25T01:36:23.061Z,6.12
2019-03-25T01:38:51.546Z,5.42
2019-03-25T01:41:20.312Z,6.53
2019-03-25T01:43:48.835Z,5.42
2019-03-25T01:46:17.612Z,5.65
2019-03-25T01:48:46.396Z,5.58
2019-03-25T01:51:15.112Z,5.80
2019-03-25T01:53:46.910Z,5.85
2019-03-25T01:56:15.357Z,5.80
2019-03-25T01:58:43.804Z,4.90
2019-03-25T02:01:12.758Z,5.47
2019-03-25T02:03:41.500Z,5.85
2019-03-25T02:06:10.102Z,6.30
2019-03-25T02:08:38.864Z,5.17
2019-03-25T02:11:07.658Z,5.75
2019-03-25T02:13:37.426Z,6.00
2019-03-25T02:16:07.435Z,5.33
2019-03-25T02:18:36.235Z,6.15
2019-03-25T02:21:07.904Z,5.67
2019-03-25T02:23:36.546Z,4.90
2019-03-25T02:26:05.350Z,5.90
2019-03-25T02:28:33.829Z,6.30
2019-03-25T02:31:02.285Z,5.85
2019-03-25T02:33:31.111Z,5.50
2019-03-25T02:36:01.326Z,5.53
2019-03-25T02:38:30.209Z,5.37
2019-03-25T02:40:59.490Z,5.42
2019-03-25T02:43:27.973Z,5.85
2019-03-25T02:45:57.875Z,5.28
2019-03-25T02:48:26.404Z,5.00
2019-03-25T02:50:56.257Z,5.85
2019-03-25T02:53:24.712Z,5.95
2019-03-25T02:55:53.177Z,4.65
2019-03-25T02:58:21.943Z,5.33
2019-03-25T03:00:52.132Z,4.55
2019-03-25T03:03:20.923Z,5.08
2019-03-25T03:05:49.752Z,4.80
2019-03-25T03:08:18.638Z,5.58
2019-03-25T03:10:47.083Z,4.30
2019-03-25T03:13:17.133Z,4.67
2019-03-25T03:15:45.621Z,4.37
2019-03-25T03:18:14.501Z,4.00
2019-03-25T03:20:47.425Z,3.83
2019-03-25T03:23:16.198Z,4.62
2019-03-25T03:25:56.121Z,3.90
2019-03-25T03:28:18.219Z,4.87
2019-03-25T03:30:46.932Z,3.67
2019-03-25T03:33:16.240Z,3.98
2019-03-25T03:35:46.494Z,4.83
2019-03-25T03:38:14.926Z,3.80
2019-03-25T03:40:43.816Z,3.75
2019-03-25T03:43:12.259Z,3.15
2019-03-25T03:45:41.011Z,2.70
2019-03-25T03:48:09.730Z,2.90
2019-03-25T03:50:40.094Z,2.60
2019-03-25T03:53:09.012Z,3.80
2019-03-25T03:55:40.922Z,3.20
2019-03-25T03:58:12.338Z,2.92
2019-03-25T04:00:40.786Z,3.33
2019-03-25T04:03:09.595Z,2.60
2019-03-25T04:05:38.334Z,4.55
2019-03-25T04:08:08.648Z,3.52
2019-03-25T04:10:37.474Z,3.45
2019-03-25T04:13:06.032Z,3.67
2019-03-25T04:15:34.954Z,4.20
2019-03-25T04:18:03.766Z,3.33
2019-03-25T04:20:32.690Z,4.15
2019-03-25T04:23:01.243Z,3.58
2019-03-25T04:25:30.165Z,3.95
2019-03-25T04:27:59.630Z,4.35
2019-03-25T04:30:28.401Z,3.77
2019-03-25T04:32:58.074Z,3.75
2019-03-25T04:35:26.528Z,4.37
2019-03-25T04:37:56.633Z,4.00
2019-03-25T04:40:25.305Z,4.10
2019-03-25T04:42:54.096Z,4.08
2019-03-25T04:45:23.954Z,3.72
2019-03-25T04:47:52.721Z,3.83
2019-03-25T04:50:21.165Z,4.00
2019-03-25T04:52:49.909Z,3.65
2019-03-25T04:55:18.791Z,4.08
2019-03-25T04:57:47.536Z,3.20
2019-03-25T05:00:17.638Z,4.92
2019-03-25T05:02:49.390Z,3.45
2019-03-25T05:05:18.113Z,3.50
2019-03-25T05:07:46.573Z,3.02
2019-03-25T05:10:16.213Z,4.53
2019-03-25T05:12:44.705Z,3.50
2019-03-25T05:15:13.588Z,3.75
2019-03-25T05:17:42.391Z,3.60
2019-03-25T05:20:11.226Z,4.65
2019-03-25T05:22:39.667Z,2.77
2019-03-25T05:25:08.283Z,4.22
2019-03-25T05:27:37.019Z,5.33
2019-03-25T05:30:10.025Z,3.98
2019-03-25T05:32:40.837Z,3.50
2019-03-25T05:35:10.822Z,4.30
2019-03-25T05:37:39.549Z,3.55
2019-03-25T05:40:08.614Z,3.37
2019-03-25T05:42:37.746Z,4.05
2019-03-25T05:45:07.133Z,2.95
2019-03-25T05:47:35.913Z,3.60
2019-03-25T05:50:09.074Z,5.17
2019-03-25T05:52:38.027Z,3.40
2019-03-25T05:55:09.777Z,3.22
2019-03-25T05:57:38.823Z,3.42
2019-03-25T06:00:07.917Z,3.20
2019-03-25T06:02:36.728Z,3.83
2019-03-25T06:05:06.839Z,4.55
2019-03-25T06:07:35.378Z,3.85
2019-03-25T06:10:04.774Z,3.87
2019-03-25T06:12:33.375Z,3.45
2019-03-25T06:15:01.892Z,4.33
2019-03-25T06:17:32.639Z,3.25
2019-03-25T06:20:01.456Z,3.85
2019-03-25T06:22:30.045Z,3.42
2019-03-25T06:24:58.574Z,3.75
2019-03-25T06:27:27.387Z,3.87
2019-03-25T06:29:55.918Z,3.12
2019-03-25T06:32:24.931Z,3.17
2019-03-25T06:34:53.418Z,2.87
2019-03-25T06:37:22.825Z,3.52
2019-03-25T06:39:51.534Z,4.42
2019-03-25T06:42:21.642Z,3.85
2019-03-25T06:44:50.165Z,4.12
2019-03-25T06:47:18.930Z,3.47
2019-03-25T06:49:47.405Z,3.42
2019-03-25T06:52:15.842Z,2.98
2019-03-25T06:54:44.544Z,4.12
2019-03-25T06:57:13.023Z,3.00
2019-03-25T06:59:43.027Z,3.87
2019-03-25T07:02:11.926Z,4.08
2019-03-25T07:04:41.722Z,3.58
2019-03-25T07:07:10.168Z,3.00
2019-03-25T07:09:38.612Z,2.42
2019-03-25T07:12:07.385Z,3.05
2019-03-25T07:14:36.107Z,2.83
2019-03-25T07:17:05.028Z,3.40
2019-03-25T07:19:33.829Z,2.20
2019-03-25T07:22:02.297Z,2.52
2019-03-25T07:24:32.038Z,3.42
2019-03-25T07:27:00.822Z,3.05
2019-03-25T07:29:29.301Z,4.20
2019-03-25T07:32:00.011Z,3.47
2019-03-25T07:34:28.560Z,3.77
2019-03-25T07:36:58.048Z,3.08
2019-03-25T07:39:28.781Z,3.25
2019-03-25T07:41:57.652Z,2.65
2019-03-25T07:44:26.625Z,3.05
2019-03-25T07:46:55.605Z,3.67
2019-03-25T07:49:24.393Z,3.35
2019-03-25T07:51:53.217Z,3.50
2019-03-25T07:54:22.101Z,3.05
2019-03-25T07:56:50.583Z,3.37
2019-03-25T07:59:20.296Z,2.70
2019-03-25T08:01:49.189Z,2.55
2019-03-25T08:04:17.712Z,2.60
2019-03-25T08:06:46.251Z,2.95
2019-03-25T08:09:14.772Z,3.50
2019-03-25T08:11:43.722Z,2.80
2019-03-25T08:14:12.225Z,3.70
2019-03-25T08:16:40.760Z,2.77
2019-03-25T08:19:09.504Z,3.08
2019-03-25T08:21:38.037Z,2.80
2019-03-25T08:24:06.615Z,2.87
2019-03-25T08:26:35.103Z,3.42
2019-03-25T08:29:03.999Z,3.10
2019-03-25T08:31:32.505Z,2.80
2019-03-25T08:34:02.196Z,3.27
2019-03-25T08:36:30.752Z,3.42
2019-03-25T08:38:59.207Z,3.08
2019-03-25T08:41:30.226Z,3.17
2019-03-25T08:43:59.063Z,3.92
2019-03-25T08:46:30.611Z,2.70
2019-03-25T08:49:00.177Z,2.55
2019-03-25T08:51:28.637Z,3.30
2019-03-25T08:53:57.419Z,3.15
2019-03-25T08:56:26.163Z,2.72
2019-03-25T08:58:54.935Z,3.27
2019-03-25T09:01:23.779Z,4.05
2019-03-25T09:03:52.545Z,2.47
2019-03-25T09:06:22.638Z,1.70
2019-03-25T09:08:53.073Z,2.05
2019-03-25T09:11:21.565Z,2.50
2019-03-25T09:13:50.445Z,2.15
2019-03-25T09:16:20.680Z,2.22
2019-03-25T09:18:50.464Z,3.00
2019-03-25T09:21:18.915Z,2.77
2019-03-25T09:23:48.781Z,3.05
2019-03-25T09:26:17.470Z,3.35
2019-03-25T09:28:46.193Z,3.50
2019-03-25T09:31:15.557Z,3.62
2019-03-25T09:33:44.618Z,3.50
2019-03-25T09:36:14.517Z,2.80
2019-03-25T09:38:43.047Z,3.67
2019-03-25T09:41:11.524Z,3.60
2019-03-25T09:43:40.624Z,3.60
2019-03-25T09:46:09.401Z,3.92
2019-03-25T09:48:37.939Z,2.33
2019-03-25T09:51:06.526Z,2.92
2019-03-25T09:53:34.977Z,3.90
2019-03-25T09:56:03.658Z,2.75
2019-03-25T09:58:36.589Z,3.25
2019-03-25T10:01:03.440Z,2.52
2019-03-25T10:03:32.217Z,2.83
2019-03-25T10:06:01.133Z,3.22
2019-03-25T10:08:29.707Z,2.83
2019-03-25T10:10:59.090Z,2.75
2019-03-25T10:13:28.809Z,4.12
2019-03-25T10:15:57.639Z,3.30
2019-03-25T10:18:26.389Z,3.37
2019-03-25T10:20:55.203Z,3.55
2019-03-25T10:23:23.718Z,2.60
2019-03-25T10:25:53.157Z,3.12
2019-03-25T10:28:21.780Z,3.17
2019-03-25T10:30:50.733Z,3.12
2019-03-25T10:33:19.511Z,2.62
2019-03-25T10:35:47.971Z,4.12
2019-03-25T10:38:19.701Z,2.33
2019-03-25T10:40:48.504Z,3.15
2019-03-25T10:43:17.236Z,2.55
2019-03-25T10:45:45.775Z,2.90
2019-03-25T10:48:15.934Z,2.90
2019-03-25T10:50:44.721Z,2.40
2019-03-25T10:53:14.827Z,3.20
2019-03-25T10:55:44.849Z,3.83
2019-03-25T10:58:13.389Z,3.72
2019-03-25T11:00:41.909Z,2.85
2019-03-25T11:03:10.394Z,2.45
2019-03-25T11:05:40.041Z,3.42
2019-03-25T11:08:08.571Z,4.12
2019-03-25T11:10:37.449Z,3.20
2019-03-25T11:13:08.289Z,3.35
2019-03-25T11:15:37.114Z,2.95
2019-03-25T11:18:06.111Z,3.25
2019-03-25T11:20:35.057Z,1.67
2019-03-25T11:23:03.873Z,3.05
2019-03-25T11:25:32.859Z,2.02
2019-03-25T11:28:01.584Z,2.85
2019-03-25T11:30:50.591Z,2.92
2019-03-25T11:33:19.352Z,2.55
2019-03-25T11:35:48.238Z,1.98
2019-03-25T11:38:16.853Z,1.80
2019-03-25T11:40:45.391Z,2.50
2019-03-25T11:43:13.839Z,2.27
2019-03-25T11:45:42.742Z,2.17
2019-03-25T11:48:11.530Z,2.25
2019-03-25T11:50:39.984Z,2.47
2019-03-25T11:53:08.783Z,2.00
2019-03-25T11:55:38.903Z,2.47
2019-03-25T11:58:09.300Z,3.98
2019-03-25T12:00:37.848Z,2.58
2019-03-25T12:03:06.758Z,2.30
2019-03-25T12:05:35.349Z,2.58
2019-03-25T12:08:03.854Z,2.40
2019-03-25T12:10:32.397Z,2.50
2019-03-25T12:13:01.195Z,2.35
2019-03-25T12:15:29.656Z,3.20
2019-03-25T12:17:58.117Z,3.15
2019-03-25T12:20:26.912Z,2.52
2019-03-25T12:22:55.371Z,1.95
2019-03-25T12:25:23.845Z,3.12
2019-03-25T12:27:52.604Z,2.02
2019-03-25T12:30:21.468Z,1.80
2019-03-25T12:32:50.424Z,2.00
2019-03-25T12:35:19.353Z,1.52
2019-03-25T12:37:48.551Z,2.05
2019-03-25T12:40:17.816Z,1.75
2019-03-25T12:42:46.266Z,1.82
2019-03-25T12:45:16.439Z,2.72
2019-03-25T12:47:44.905Z,2.58
2019-03-25T12:50:14.346Z,2.62
2019-03-25T12:52:43.247Z,2.37
2019-03-25T12:55:11.909Z,3.08
2019-03-25T12:57:40.369Z,2.30
2019-03-25T13:00:10.047Z,2.75
2019-03-25T13:02:40.244Z,2.00
2019-03-25T13:05:11.051Z,2.90
2019-03-25T13:07:39.850Z,2.10
2019-03-25T13:10:11.215Z,2.80
2019-03-25T13:12:41.046Z,2.95
2019-03-25T13:15:11.380Z,2.85
2019-03-25T13:17:39.842Z,2.25
2019-03-25T13:20:09.093Z,2.72
2019-03-25T13:22:37.566Z,2.60
2019-03-25T13:25:06.640Z,2.62
2019-03-25T13:27:35.632Z,3.42
2019-03-25T13:30:07.352Z,2.42
2019-03-25T13:32:36.131Z,3.02
2019-03-25T13:35:06.029Z,2.27
2019-03-25T13:37:34.570Z,1.50
2019-03-25T13:40:04.505Z,2.80
2019-03-25T13:42:33.023Z,3.00
2019-03-25T13:45:01.812Z,4.10
2019-03-25T13:47:30.322Z,2.25
2019-03-25T13:49:58.776Z,2.75
2019-03-25T13:52:27.563Z,3.12
2019-03-25T13:54:56.431Z,2.77
2019-03-25T13:57:24.967Z,3.17
2019-03-25T14:00:02.929Z,3.67
2019-03-25T14:02:24.413Z,3.10
2019-03-25T14:04:55.738Z,2.98
2019-03-25T14:07:24.571Z,2.98
2019-03-25T14:09:53.023Z,2.20
2019-03-25T14:12:29.517Z,2.70
2019-03-25T14:14:58.877Z,2.87
2019-03-25T14:17:27.605Z,2.20
2019-03-25T14:19:56.401Z,2.12
2019-03-25T14:22:24.881Z,2.47
2019-03-25T14:24:53.400Z,2.55
2019-03-25T14:27:22.166Z,2.42
2019-03-25T14:29:50.616Z,1.98
2019-03-25T14:32:21.991Z,1.87
2019-03-25T14:34:50.467Z,2.30
2019-03-25T14:37:18.915Z,3.30
2019-03-25T14:39:47.402Z,2.67
2019-03-25T14:42:15.876Z,2.22
2019-03-25T14:44:46.105Z,2.15
2019-03-25T14:47:17.457Z,2.40
2019-03-25T14:49:45.987Z,2.72
2019-03-25T14:52:15.228Z,3.62
2019-03-25T14:54:45.543Z,2.45
2019-03-25T14:57:14.359Z,2.50
2019-03-25T14:59:43.542Z,2.37
2019-03-25T15:02:12.015Z,3.12
2019-03-25T15:04:40.773Z,4.12
2019-03-25T15:07:09.224Z,2.80
2019-03-25T15:09:37.950Z,3.20
2019-03-25T15:12:06.842Z,2.42
2019-03-25T15:14:36.953Z,1.98
2019-03-25T15:17:05.588Z,1.77
2019-03-25T15:19:34.373Z,2.47
2019-03-25T15:22:02.961Z,3.17
2019-03-25T15:24:31.516Z,2.65
2019-03-25T15:26:59.964Z,2.75
2019-03-25T15:29:28.885Z,3.45
2019-03-25T15:31:59.224Z,2.33
2019-03-25T15:34:28.103Z,2.65
2019-03-25T15:36:56.610Z,2.02
2019-03-25T15:39:25.470Z,2.20
2019-03-25T15:41:54.227Z,2.77
2019-03-25T15:44:26.700Z,3.65
2019-03-25T15:46:56.173Z,2.95
2019-03-25T15:49:25.005Z,3.83
2019-03-25T15:51:53.852Z,3.83
2019-03-25T15:54:25.391Z,3.30
2019-03-25T15:56:54.130Z,3.33
2019-03-25T15:59:23.842Z,2.65
2019-03-25T16:01:53.864Z,3.40
2019-03-25T16:04:28.442Z,4.30
2019-03-25T16:06:57.401Z,4.00
2019-03-25T16:09:27.181Z,3.33
2019-03-25T16:11:55.909Z,4.55
2019-03-25T16:14:24.422Z,4.35
2019-03-25T16:16:53.206Z,3.47
2019-03-25T16:19:22.037Z,3.87
2019-03-25T16:21:50.820Z,4.17
2019-03-25T16:24:21.872Z,3.27
2019-03-25T16:26:51.948Z,4.08
2019-03-25T16:29:20.394Z,5.08
2019-03-25T16:31:51.628Z,3.20
2019-03-25T16:34:20.152Z,3.70
2019-03-25T16:36:48.630Z,3.10
2019-03-25T16:39:17.452Z,3.27
2019-03-25T16:41:47.595Z,3.47
2019-03-25T16:44:18.390Z,3.22
2019-03-25T16:46:47.413Z,3.65
2019-03-25T16:49:17.686Z,3.65
2019-03-25T16:51:46.200Z,3.33
2019-03-25T16:54:14.962Z,3.42
2019-03-25T16:56:43.412Z,2.83
2019-03-25T16:59:11.926Z,2.72
2019-03-25T17:01:40.420Z,4.42
2019-03-25T17:04:08.875Z,3.10
2019-03-25T17:06:37.417Z,3.67
2019-03-25T17:09:07.498Z,2.98
2019-03-25T17:11:36.035Z,4.33
2019-03-25T17:14:05.089Z,3.90
2019-03-25T17:16:33.563Z,3.80
2019-03-25T17:19:02.344Z,3.58
2019-03-25T17:21:30.827Z,2.80
2019-03-25T17:24:00.685Z,3.20
2019-03-25T17:26:29.139Z,3.58
2019-03-25T17:28:59.048Z,3.40
2019-03-25T17:31:27.940Z,3.95
2019-03-25T17:33:58.086Z,3.52
2019-03-25T17:36:29.311Z,4.10
2019-03-25T17:38:57.791Z,3.50
2019-03-25T17:41:26.240Z,4.28
2019-03-25T17:43:55.904Z,4.70
2019-03-25T17:46:27.169Z,4.97
2019-03-25T17:48:55.957Z,5.55
2019-03-25T17:51:24.451Z,4.55
2019-03-25T17:53:53.332Z,3.85
2019-03-25T17:56:22.676Z,6.35
2019-03-25T17:58:51.432Z,5.83
2019-03-25T18:01:20.174Z,4.05
2019-03-25T18:03:49.017Z,4.90
2019-03-25T18:06:17.778Z,10.30
2019-03-25T18:08:46.394Z,7.83
2019-03-25T18:11:15.099Z,6.45
2019-03-25T18:13:43.562Z,17.85
2019-03-25T18:16:12.433Z,6.42
2019-03-25T18:18:42.626Z,4.28
2019-03-25T18:21:11.785Z,5.12
2019-03-25T18:23:40.545Z,15.03
2019-03-25T18:26:09.844Z,5.58
2019-03-25T18:28:40.125Z,4.05
2019-03-25T18:31:08.595Z,4.22
2019-03-25T18:33:37.032Z,4.37
2019-03-25T18:36:05.859Z,4.50
2019-03-25T18:38:34.638Z,3.60
2019-03-25T18:41:03.469Z,4.72
2019-03-25T18:43:34.585Z,4.30
2019-03-25T18:46:03.093Z,3.65
2019-03-25T18:48:33.962Z,4.22
2019-03-25T18:51:02.830Z,3.80
2019-03-25T18:53:32.114Z,3.87
2019-03-25T18:56:00.920Z,3.90
2019-03-25T18:58:29.379Z,4.00
2019-03-25T19:00:59.611Z,3.35
2019-03-25T19:03:28.129Z,4.17
2019-03-25T19:05:56.595Z,4.28
2019-03-25T19:08:25.704Z,2.92
2019-03-25T19:10:54.686Z,3.37
2019-03-25T19:13:23.469Z,4.62
2019-03-25T19:15:52.004Z,4.25
2019-03-25T19:18:22.670Z,3.27
2019-03-25T19:20:51.175Z,3.87
2019-03-25T19:23:19.737Z,3.77
2019-03-25T19:25:48.513Z,3.45
2019-03-25T19:28:16.990Z,4.37
2019-03-25T19:30:45.805Z,3.60
2019-03-25T19:33:14.619Z,3.17
2019-03-25T19:35:43.133Z,3.37
2019-03-25T19:38:11.862Z,3.90
2019-03-25T19:40:41.426Z,3.33
2019-03-25T19:43:09.969Z,5.42
2019-03-25T19:45:38.739Z,3.20
2019-03-25T19:48:08.367Z,4.00
2019-03-25T19:50:37.803Z,4.33
2019-03-25T19:53:18.355Z,3.55
2019-03-25T19:55:36.830Z,5.03
2019-03-25T19:58:05.441Z,3.92
2019-03-25T20:00:40.902Z,5.47
2019-03-25T20:03:09.655Z,4.25
2019-03-25T20:05:38.198Z,4.25
2019-03-25T20:08:06.889Z,4.62
2019-03-25T20:10:37.708Z,4.95
2019-03-25T20:13:06.456Z,5.33
2019-03-25T20:15:45.424Z,5.55
2019-03-25T20:18:06.371Z,4.72
2019-03-25T20:20:37.050Z,4.95
2019-03-25T20:23:05.994Z,4.95
2019-03-25T20:25:35.143Z,5.35
2019-03-25T20:28:03.869Z,4.95
2019-03-25T20:30:32.437Z,4.97
2019-03-25T20:33:01.828Z,5.70
2019-03-25T20:35:31.703Z,6.47
2019-03-25T20:38:00.515Z,4.22
2019-03-25T20:40:28.997Z,4.90
2019-03-25T20:42:57.587Z,5.33
2019-03-25T20:45:31.185Z,5.55
2019-03-25T20:47:59.679Z,5.97
2019-03-25T20:50:28.508Z,5.62
2019-03-25T20:52:57.824Z,6.10
2019-03-25T20:55:26.423Z,6.95
2019-03-25T20:57:54.952Z,4.25
2019-03-25T21:00:35.536Z,4.85
2019-03-25T21:03:04.015Z,4.95
2019-03-25T21:05:32.851Z,6.67
2019-03-25T21:08:01.612Z,5.40
2019-03-25T21:10:30.335Z,3.85
2019-03-25T21:12:59.694Z,3.75
2019-03-25T21:15:28.555Z,3.75
2019-03-25T21:17:57.050Z,4.33
2019-03-25T21:20:25.713Z,5.03
2019-03-25T21:22:54.196Z,5.17
2019-03-25T21:25:22.795Z,4.95
2019-03-25T21:27:51.373Z,4.50
2019-03-25T21:30:21.175Z,4.67
2019-03-25T21:32:58.208Z,3.98
2019-03-25T21:35:21.614Z,2.87
2019-03-25T21:37:50.238Z,3.70
2019-03-25T21:40:18.802Z,3.33
2019-03-25T21:42:48.102Z,3.95
2019-03-25T21:45:25.110Z,3.80
2019-03-25T21:47:53.583Z,4.92
2019-03-25T21:50:22.364Z,3.60
2019-03-25T21:52:50.939Z,2.60
2019-03-25T21:55:19.501Z,3.45
2019-03-25T21:57:48.493Z,3.80
2019-03-25T22:00:17.289Z,3.20
2019-03-25T22:02:45.870Z,3.40
2019-03-25T22:05:14.458Z,3.12
2019-03-25T22:07:44.797Z,3.77
2019-03-25T22:10:14.326Z,3.30
2019-03-25T22:12:42.858Z,3.25
2019-03-25T22:15:12.398Z,3.40
2019-03-25T22:17:41.363Z,2.25
2019-03-25T22:20:14.906Z,3.62
2019-03-25T22:22:43.466Z,3.17
2019-03-25T22:25:13.706Z,2.30
2019-03-25T22:27:44.715Z,3.08
2019-03-25T22:30:13.551Z,2.30
2019-03-25T22:32:42.851Z,2.35
2019-03-25T22:35:13.453Z,3.10
2019-03-25T22:37:41.884Z,2.33
2019-03-25T22:40:11.880Z,2.75
2019-03-25T22:42:40.671Z,2.17
2019-03-25T22:45:09.276Z,2.40
2019-03-25T22:47:40.015Z,2.67
2019-03-25T22:50:10.825Z,3.15
2019-03-25T22:52:39.344Z,3.35
2019-03-25T22:55:08.650Z,2.50
2019-03-25T22:57:37.114Z,2.50
2019-03-25T23:00:07.558Z,2.70
2019-03-25T23:02:38.170Z,3.95
2019-03-25T23:05:10.107Z,3.15
2019-03-25T23:07:39.958Z,2.90
2019-03-25T23:10:09.110Z,3.30
2019-03-25T23:12:37.843Z,2.85
2019-03-25T23:15:06.651Z,2.92
2019-03-25T23:17:35.196Z,2.90
2019-03-25T23:20:04.353Z,2.27
2019-03-25T23:22:33.175Z,2.67
2019-03-25T23:25:02.127Z,3.08
2019-03-25T23:27:32.392Z,2.85
2019-03-25T23:30:01.081Z,2.37
2019-03-25T23:32:29.556Z,2.65
2019-03-25T23:34:58.257Z,2.40
2019-03-25T23:37:26.701Z,2.10
2019-03-25T23:39:56.866Z,2.55
2019-03-25T23:42:28.211Z,2.15
2019-03-25T23:44:58.568Z,1.92
2019-03-25T23:47:27.036Z,2.55
2019-03-25T23:49:58.371Z,2.33
2019-03-25T23:52:26.932Z,2.50
2019-03-25T23:54:57.036Z,3.02
2019-03-25T23:57:25.790Z,3.45
2019-03-25T23:59:54.233Z,1.87
